createdAt,value
2022-10-31T00:00:19.070Z,91.07
2022-10-31T00:01:19.019Z,90.97
2022-10-31T00:02:19.149Z,91.07
2022-10-31T00:03:19.345Z,91.22
2022-10-31T00:04:18.990Z,91.17
2022-10-31T00:05:18.974Z,91.11
2022-10-31T00:06:18.981Z,91.31
2022-10-31T00:07:19.450Z,91.31
2022-10-31T00:08:19.025Z,91.22
2022-10-31T00:09:18.913Z,91.31
2022-10-31T00:10:18.902Z,91.42
2022-10-31T00:11:19.084Z,91.38
2022-10-31T00:12:18.886Z,91.38
2022-10-31T00:13:18.951Z,91.27
2022-10-31T00:14:19.085Z,91.17
2022-10-31T00:15:18.832Z,91.07
2022-10-31T00:16:18.825Z,90.77
2022-10-31T00:17:18.817Z,90.66
2022-10-31T00:18:18.804Z,90.56
2022-10-31T00:19:18.773Z,90.25
2022-10-31T00:20:18.764Z,90.46
2022-10-31T00:21:18.754Z,90.36
2022-10-31T00:22:19.014Z,90.56
2022-10-31T00:23:18.728Z,90.36
2022-10-31T00:24:19.675Z,90.25
2022-10-31T00:25:18.694Z,90.56
2022-10-31T00:26:18.691Z,90.60
2022-10-31T00:27:18.708Z,90.50
2022-10-31T00:29:18.648Z,91.01
2022-10-31T00:30:18.642Z,90.81
2022-10-31T00:31:18.616Z,91.22
2022-10-31T00:32:18.614Z,91.22
2022-10-31T00:33:18.599Z,91.01
2022-10-31T00:34:18.579Z,91.01
2022-10-31T00:35:18.608Z,91.11
2022-10-31T00:36:18.554Z,91.01
2022-10-31T00:37:18.550Z,91.11
2022-10-31T00:38:18.539Z,91.11
2022-10-31T00:39:18.529Z,91.22
2022-10-31T00:40:18.500Z,91.11
2022-10-31T00:41:18.488Z,91.22
2022-10-31T00:42:18.496Z,91.22
2022-10-31T00:43:18.463Z,91.22
2022-10-31T00:44:18.451Z,91.31
2022-10-31T00:45:18.432Z,91.16
2022-10-31T00:46:19.390Z,91.22
2022-10-31T00:47:18.441Z,91.31
2022-10-31T00:48:18.414Z,91.31
2022-10-31T00:49:18.383Z,91.22
2022-10-31T00:50:18.372Z,91.36
2022-10-31T00:51:18.362Z,91.16
2022-10-31T00:52:18.592Z,91.26
2022-10-31T00:53:18.325Z,91.16
2022-10-31T00:54:18.324Z,91.26
2022-10-31T00:55:18.313Z,91.56
2022-10-31T00:56:18.295Z,91.91
2022-10-31T00:57:18.295Z,91.91
2022-10-31T00:58:18.267Z,91.81
2022-10-31T00:59:18.253Z,91.81
2022-10-31T01:00:18.251Z,92.11
2022-10-31T01:01:18.335Z,92.16
2022-10-31T01:02:18.351Z,92.36
2022-10-31T01:03:18.197Z,92.67
2022-10-31T01:04:18.195Z,92.97
2022-10-31T01:05:18.177Z,93.18
2022-10-31T01:06:18.167Z,93.48
2022-10-31T01:07:18.142Z,93.59
2022-10-31T01:08:18.140Z,93.48
2022-10-31T01:09:18.127Z,93.28
2022-10-31T01:10:18.116Z,93.48
2022-10-31T01:11:18.099Z,93.48
2022-10-31T01:12:18.092Z,93.59
2022-10-31T01:13:18.756Z,93.28
2022-10-31T01:14:18.063Z,93.38
2022-10-31T01:15:18.172Z,93.48
2022-10-31T01:16:18.240Z,93.48
2022-10-31T01:17:18.012Z,93.38
2022-10-31T01:18:18.022Z,93.38
2022-10-31T01:19:17.995Z,93.38
2022-10-31T01:20:17.985Z,93.38
2022-10-31T01:21:17.972Z,93.38
2022-10-31T01:22:17.953Z,93.38
2022-10-31T01:23:17.932Z,93.38
2022-10-31T01:24:18.133Z,93.28
2022-10-31T01:25:17.921Z,93.28
2022-10-31T01:26:17.915Z,93.28
2022-10-31T01:27:17.894Z,93.38
2022-10-31T01:28:17.915Z,93.38
2022-10-31T01:29:17.863Z,93.38
2022-10-31T01:30:17.858Z,93.48
2022-10-31T01:31:17.854Z,93.59
2022-10-31T01:32:17.829Z,93.48
2022-10-31T01:33:17.813Z,93.48
2022-10-31T01:34:17.801Z,93.59
2022-10-31T01:35:17.786Z,93.69
2022-10-31T01:36:17.777Z,93.59
2022-10-31T01:37:17.756Z,93.59
2022-10-31T01:38:17.784Z,93.59
2022-10-31T01:39:17.826Z,93.79
2022-10-31T01:40:17.717Z,93.89
2022-10-31T01:41:17.906Z,93.99
2022-10-31T01:42:17.967Z,93.93
2022-10-31T01:43:17.707Z,93.69
2022-10-31T01:44:17.688Z,93.89
2022-10-31T01:45:17.647Z,93.89
2022-10-31T01:46:17.660Z,93.99
2022-10-31T01:47:17.622Z,93.99
2022-10-31T01:48:17.774Z,93.89
2022-10-31T01:49:17.589Z,93.99
2022-10-31T01:50:17.581Z,93.79
2022-10-31T01:51:17.570Z,93.79
2022-10-31T01:52:18.512Z,93.89
2022-10-31T01:53:19.872Z,93.73
2022-10-31T01:54:17.550Z,93.59
2022-10-31T01:55:17.532Z,93.59
2022-10-31T01:56:17.503Z,93.43
2022-10-31T01:57:17.511Z,93.63
2022-10-31T01:58:19.980Z,93.73
2022-10-31T01:59:17.463Z,93.88
2022-10-31T02:00:17.962Z,93.93
2022-10-31T02:01:17.600Z,93.84
2022-10-31T02:03:49.721Z,93.88
2022-10-31T02:04:26.896Z,93.98
2022-10-31T02:05:26.620Z,94.08
2022-10-31T02:06:26.599Z,94.18
2022-10-31T02:07:26.595Z,94.29
2022-10-31T02:08:26.582Z,94.59
2022-10-31T02:09:26.561Z,94.94
2022-10-31T02:10:27.212Z,94.79
2022-10-31T02:11:28.463Z,95.04
2022-10-31T02:12:26.521Z,95.25
2022-10-31T02:14:26.493Z,95.65
2022-10-31T02:15:26.485Z,95.76
2022-10-31T02:16:28.144Z,95.86
2022-10-31T02:17:26.462Z,96.06
2022-10-31T02:18:26.454Z,96.17
2022-10-31T02:19:26.438Z,96.17
2022-10-31T02:20:27.006Z,96.27
2022-10-31T02:21:26.413Z,96.21
2022-10-31T02:22:26.648Z,96.21
2022-10-31T02:23:26.373Z,96.21
2022-10-31T02:24:26.356Z,96.21
2022-10-31T02:25:26.355Z,96.01
2022-10-31T02:26:26.344Z,96.01
2022-10-31T02:27:26.323Z,95.90
2022-10-31T02:28:27.158Z,95.80
2022-10-31T02:29:26.886Z,95.80
2022-10-31T02:30:26.292Z,95.80
2022-10-31T02:31:26.266Z,95.70
2022-10-31T02:32:27.278Z,95.70
2022-10-31T02:33:26.256Z,95.80
2022-10-31T02:34:27.287Z,95.80
2022-10-31T02:35:30.906Z,95.90
2022-10-31T02:36:26.219Z,96.01
2022-10-31T02:37:26.189Z,96.11
2022-10-31T02:38:26.189Z,96.21
2022-10-31T02:39:26.369Z,96.21
2022-10-31T02:40:26.919Z,96.21
2022-10-31T02:41:26.141Z,96.31
2022-10-31T02:42:26.950Z,96.42
2022-10-31T02:43:26.112Z,96.31
2022-10-31T02:44:26.467Z,96.31
2022-10-31T02:45:27.010Z,96.42
2022-10-31T02:46:29.613Z,96.51
2022-10-31T02:47:26.284Z,96.51
2022-10-31T02:48:26.057Z,96.56
2022-10-31T02:49:26.030Z,96.72
2022-10-31T02:50:26.033Z,96.77
2022-10-31T02:51:26.011Z,96.92
2022-10-31T02:52:26.004Z,96.92
2022-10-31T02:53:25.980Z,96.77
2022-10-31T02:54:25.970Z,96.77
2022-10-31T02:55:25.962Z,96.77
2022-10-31T02:56:25.944Z,96.67
2022-10-31T02:57:26.728Z,96.67
2022-10-31T02:58:27.018Z,96.67
2022-10-31T02:59:25.913Z,96.46
2022-10-31T03:00:26.086Z,96.56
2022-10-31T03:01:26.754Z,96.67
2022-10-31T03:02:27.829Z,96.56
2022-10-31T03:03:26.964Z,96.56
2022-10-31T03:04:26.243Z,96.67
2022-10-31T03:05:25.835Z,96.56
2022-10-31T03:06:25.825Z,96.51
2022-10-31T03:07:25.805Z,96.51
2022-10-31T03:08:25.796Z,96.51
2022-10-31T03:09:25.776Z,96.51
2022-10-31T03:10:25.773Z,96.31
2022-10-31T03:11:25.757Z,96.21
2022-10-31T03:12:25.738Z,96.11
2022-10-31T03:13:25.729Z,96.11
2022-10-31T03:14:26.017Z,95.86
2022-10-31T03:15:25.698Z,95.56
2022-10-31T03:16:25.688Z,95.45
2022-10-31T03:17:25.711Z,95.25
2022-10-31T03:18:25.658Z,95.15
2022-10-31T03:19:25.638Z,95.04
2022-10-31T03:20:25.640Z,94.74
2022-10-31T03:21:26.609Z,94.64
2022-10-31T03:22:25.600Z,94.64
2022-10-31T03:23:25.604Z,94.53
2022-10-31T03:24:25.641Z,94.64
2022-10-31T03:25:25.812Z,94.64
2022-10-31T03:26:25.557Z,94.53
2022-10-31T03:27:26.282Z,94.53
2022-10-31T03:28:26.343Z,94.64
2022-10-31T03:29:25.901Z,94.94
2022-10-31T03:30:25.502Z,94.98
2022-10-31T03:31:25.482Z,94.98
2022-10-31T03:32:25.522Z,94.98
2022-10-31T03:33:25.469Z,95.09
2022-10-31T03:34:25.453Z,95.09
2022-10-31T03:35:25.705Z,95.39
2022-10-31T03:36:25.423Z,95.50
2022-10-31T03:37:26.283Z,95.60
2022-10-31T03:38:25.383Z,95.60
2022-10-31T03:39:25.854Z,95.60
2022-10-31T03:40:25.362Z,95.80
2022-10-31T03:41:25.354Z,95.80
2022-10-31T03:42:25.345Z,95.70
2022-10-31T03:43:25.532Z,95.60
2022-10-31T03:44:25.545Z,95.50
2022-10-31T03:45:25.324Z,95.60
2022-10-31T03:46:25.288Z,95.50
2022-10-31T03:47:25.288Z,95.29
2022-10-31T03:48:25.266Z,95.39
2022-10-31T03:49:25.269Z,95.39
2022-10-31T03:50:25.299Z,95.39
2022-10-31T03:51:25.858Z,95.39
2022-10-31T03:52:26.918Z,95.50
2022-10-31T03:53:25.219Z,95.39
2022-10-31T03:54:25.189Z,95.50
2022-10-31T03:55:25.172Z,95.39
2022-10-31T03:56:26.100Z,95.39
2022-10-31T03:57:25.170Z,95.39
2022-10-31T03:58:25.149Z,95.29
2022-10-31T03:59:25.131Z,95.39
2022-10-31T04:00:25.107Z,95.39
2022-10-31T04:01:25.298Z,95.39
2022-10-31T04:02:26.125Z,95.50
2022-10-31T04:03:25.266Z,95.60
2022-10-31T04:04:25.316Z,95.50
2022-10-31T04:05:25.397Z,95.50
2022-10-31T04:06:25.422Z,95.50
2022-10-31T04:07:25.034Z,95.50
2022-10-31T04:08:25.042Z,95.50
2022-10-31T04:09:24.992Z,95.39
2022-10-31T04:10:31.859Z,95.50
2022-10-31T04:11:26.203Z,95.50
2022-10-31T04:12:24.953Z,95.50
2022-10-31T04:13:25.842Z,95.39
2022-10-31T04:14:24.914Z,95.29
2022-10-31T04:15:25.869Z,95.39
2022-10-31T04:16:24.914Z,95.39
2022-10-31T04:17:24.884Z,95.39
2022-10-31T04:18:24.871Z,95.50
2022-10-31T04:19:24.861Z,95.60
2022-10-31T04:20:24.836Z,95.70
2022-10-31T04:21:25.174Z,95.60
2022-10-31T04:22:24.815Z,95.60
2022-10-31T04:23:24.818Z,95.60
2022-10-31T04:24:24.786Z,95.60
2022-10-31T04:25:24.794Z,95.60
2022-10-31T04:26:25.378Z,95.70
2022-10-31T04:27:25.425Z,95.90
2022-10-31T04:28:24.758Z,95.70
2022-10-31T04:29:24.727Z,95.80
2022-10-31T04:30:25.567Z,95.90
2022-10-31T04:31:24.703Z,96.11
2022-10-31T04:32:25.138Z,96.21
2022-10-31T04:33:26.218Z,96.42
2022-10-31T04:34:24.717Z,96.51
2022-10-31T04:35:24.659Z,96.62
2022-10-31T04:36:24.630Z,96.83
2022-10-31T04:37:25.364Z,96.83
2022-10-31T04:38:25.409Z,96.83
2022-10-31T04:39:26.671Z,96.72
2022-10-31T04:40:25.523Z,96.42
2022-10-31T04:41:25.061Z,96.21
2022-10-31T04:42:24.570Z,96.11
2022-10-31T04:43:24.656Z,96.11
2022-10-31T04:44:24.693Z,95.90
2022-10-31T04:45:24.518Z,96.11
2022-10-31T04:46:24.792Z,96.21
2022-10-31T04:47:24.742Z,96.21
2022-10-31T04:48:24.472Z,96.46
2022-10-31T04:49:24.968Z,96.46
2022-10-31T04:50:24.444Z,96.87
2022-10-31T04:51:24.450Z,96.97
2022-10-31T04:52:24.423Z,96.77
2022-10-31T04:53:24.403Z,96.67
2022-10-31T04:54:24.401Z,96.56
2022-10-31T04:55:24.384Z,96.46
2022-10-31T04:56:24.370Z,96.36
2022-10-31T04:57:24.354Z,96.46
2022-10-31T04:58:24.349Z,96.36
2022-10-31T04:59:24.358Z,96.36
2022-10-31T05:00:24.322Z,96.46
2022-10-31T05:01:24.409Z,96.67
2022-10-31T05:02:24.347Z,96.56
2022-10-31T05:03:24.276Z,96.36
2022-10-31T05:04:24.266Z,96.26
2022-10-31T05:05:24.247Z,96.26
2022-10-31T05:06:24.236Z,96.30
2022-10-31T05:07:24.243Z,96.30
2022-10-31T05:08:24.217Z,96.20
2022-10-31T05:09:24.208Z,96.30
2022-10-31T05:10:24.183Z,96.41
2022-10-31T05:11:24.168Z,96.61
2022-10-31T05:12:24.170Z,96.71
2022-10-31T05:13:24.144Z,96.71
2022-10-31T05:14:24.124Z,96.81
2022-10-31T05:15:24.379Z,96.92
2022-10-31T05:16:24.099Z,97.06
2022-10-31T05:17:24.106Z,97.27
2022-10-31T05:18:24.081Z,97.47
2022-10-31T05:19:24.063Z,97.57
2022-10-31T05:20:24.050Z,97.78
2022-10-31T05:21:24.999Z,97.88
2022-10-31T05:22:24.042Z,98.08
2022-10-31T05:23:24.012Z,98.19
2022-10-31T05:24:24.002Z,97.98
2022-10-31T05:25:23.992Z,98.19
2022-10-31T05:26:23.972Z,98.19
2022-10-31T05:27:24.922Z,98.08
2022-10-31T05:28:23.950Z,97.98
2022-10-31T05:29:23.943Z,97.88
2022-10-31T05:30:23.934Z,97.98
2022-10-31T05:31:23.920Z,98.08
2022-10-31T05:32:23.893Z,97.88
2022-10-31T05:33:23.878Z,97.88
2022-10-31T05:34:23.880Z,97.78
2022-10-31T05:35:23.864Z,97.78
2022-10-31T05:36:23.835Z,97.92
2022-10-31T05:37:23.835Z,98.03
2022-10-31T05:38:24.087Z,98.03
2022-10-31T05:39:23.801Z,97.92
2022-10-31T05:40:23.788Z,97.92
2022-10-31T05:41:23.778Z,97.92
2022-10-31T05:42:23.778Z,98.03
2022-10-31T05:43:24.704Z,98.13
2022-10-31T05:44:24.696Z,98.13
2022-10-31T05:45:23.730Z,98.03
2022-10-31T05:46:23.762Z,98.13
2022-10-31T05:47:23.708Z,98.24
2022-10-31T05:48:23.687Z,98.33
2022-10-31T05:49:23.684Z,98.24
2022-10-31T05:50:23.649Z,98.13
2022-10-31T05:51:23.667Z,98.07
2022-10-31T05:52:23.630Z,98.07
2022-10-31T05:53:24.577Z,98.18
2022-10-31T05:54:24.558Z,98.18
2022-10-31T05:55:23.590Z,98.28
2022-10-31T05:56:23.582Z,98.28
2022-10-31T05:57:23.560Z,98.28
2022-10-31T05:58:24.519Z,98.28
2022-10-31T05:59:24.488Z,98.28
2022-10-31T06:00:23.527Z,98.38
2022-10-31T06:01:23.590Z,98.44
2022-10-31T06:02:23.499Z,98.24
2022-10-31T06:03:23.496Z,98.24
2022-10-31T06:04:23.526Z,98.28
2022-10-31T06:05:23.461Z,98.38
2022-10-31T06:06:23.453Z,98.24
2022-10-31T06:07:23.441Z,98.24
2022-10-31T06:08:24.364Z,98.24
2022-10-31T06:09:23.438Z,98.24
2022-10-31T06:10:23.393Z,98.33
2022-10-31T06:11:23.383Z,98.38
2022-10-31T06:12:23.363Z,98.24
2022-10-31T06:13:23.354Z,98.03
2022-10-31T06:14:24.285Z,97.92
2022-10-31T06:15:24.349Z,97.82
2022-10-31T06:16:23.326Z,97.62
2022-10-31T06:17:23.295Z,97.56
2022-10-31T06:18:23.305Z,97.56
2022-10-31T06:19:23.296Z,97.56
2022-10-31T06:20:23.295Z,97.56
2022-10-31T06:21:23.282Z,97.56
2022-10-31T06:22:23.256Z,97.66
2022-10-31T06:23:24.176Z,97.66
2022-10-31T06:24:23.208Z,97.62
2022-10-31T06:25:23.207Z,97.72
2022-10-31T06:26:23.187Z,97.92
2022-10-31T06:27:23.177Z,98.03
2022-10-31T06:28:24.108Z,98.44
2022-10-31T06:29:23.150Z,98.95
2022-10-31T06:30:23.154Z,98.95
2022-10-31T06:31:23.119Z,98.85
2022-10-31T06:32:23.100Z,98.65
2022-10-31T06:33:23.089Z,98.95
2022-10-31T06:34:24.019Z,99.11
2022-10-31T06:35:23.069Z,99.11
2022-10-31T06:36:23.101Z,99.11
2022-10-31T06:37:23.039Z,98.90
2022-10-31T06:38:23.023Z,98.70
2022-10-31T06:39:23.011Z,98.39
2022-10-31T06:40:23.007Z,98.29
2022-10-31T06:41:23.119Z,98.19
2022-10-31T06:42:22.971Z,97.88
2022-10-31T06:43:22.977Z,97.98
2022-10-31T06:44:22.942Z,97.94
2022-10-31T06:45:22.951Z,97.67
2022-10-31T06:46:22.912Z,97.53
2022-10-31T06:47:22.908Z,97.63
2022-10-31T06:48:23.077Z,97.83
2022-10-31T06:49:22.894Z,98.14
2022-10-31T06:50:22.890Z,98.14
2022-10-31T06:51:22.854Z,98.35
2022-10-31T06:52:22.847Z,98.55
2022-10-31T06:53:22.826Z,98.65
2022-10-31T06:54:22.816Z,98.55
2022-10-31T06:55:22.804Z,98.55
2022-10-31T06:56:22.795Z,98.50
2022-10-31T06:57:22.785Z,98.40
2022-10-31T06:58:22.755Z,98.50
2022-10-31T06:59:22.757Z,98.40
2022-10-31T07:00:22.747Z,98.20
2022-10-31T07:01:22.876Z,98.30
2022-10-31T07:02:22.782Z,98.10
2022-10-31T07:03:22.694Z,97.99
2022-10-31T07:04:22.678Z,97.99
2022-10-31T07:05:22.676Z,97.79
2022-10-31T07:06:22.661Z,97.69
2022-10-31T07:07:22.647Z,97.69
2022-10-31T07:08:22.629Z,97.58
2022-10-31T07:09:22.623Z,97.33
2022-10-31T07:10:22.609Z,97.33
2022-10-31T07:11:22.589Z,97.54
2022-10-31T07:12:22.590Z,97.44
2022-10-31T07:13:22.569Z,97.44
2022-10-31T07:14:22.549Z,97.33
2022-10-31T07:15:22.550Z,97.33
2022-10-31T07:16:22.522Z,97.44
2022-10-31T07:17:26.040Z,97.44
2022-10-31T07:18:23.490Z,97.54
2022-10-31T07:19:22.490Z,97.54
2022-10-31T07:20:22.473Z,97.54
2022-10-31T07:21:22.461Z,97.70
2022-10-31T07:22:22.444Z,97.80
2022-10-31T07:23:22.430Z,97.80
2022-10-31T07:24:22.434Z,97.70
2022-10-31T07:25:22.402Z,97.65
2022-10-31T07:26:22.392Z,97.65
2022-10-31T07:27:22.373Z,97.55
2022-10-31T07:28:22.373Z,97.45
2022-10-31T07:29:22.354Z,97.34
2022-10-31T07:30:22.343Z,97.34
2022-10-31T07:31:22.355Z,97.34
2022-10-31T07:32:22.315Z,97.34
2022-10-31T07:33:22.303Z,97.45
2022-10-31T07:34:22.285Z,97.61
2022-10-31T07:35:22.285Z,97.61
2022-10-31T07:36:22.268Z,97.71
2022-10-31T07:37:22.245Z,97.50
2022-10-31T07:38:22.252Z,97.61
2022-10-31T07:39:22.216Z,97.61
2022-10-31T07:40:22.214Z,97.50
2022-10-31T07:41:22.196Z,97.40
2022-10-31T07:42:22.191Z,97.16
2022-10-31T07:43:22.186Z,96.95
2022-10-31T07:44:22.225Z,97.16
2022-10-31T07:45:22.148Z,97.16
2022-10-31T07:46:22.139Z,97.05
2022-10-31T07:47:22.120Z,96.95
2022-10-31T07:48:22.120Z,97.05
2022-10-31T07:49:22.128Z,96.80
2022-10-31T07:50:22.099Z,96.70
2022-10-31T07:51:22.069Z,96.50
2022-10-31T07:52:22.059Z,96.30
2022-10-31T07:53:22.040Z,96.39
2022-10-31T07:54:22.059Z,96.39
2022-10-31T07:55:22.033Z,96.30
2022-10-31T07:56:22.017Z,96.19
2022-10-31T07:57:25.145Z,96.15
2022-10-31T07:58:22.012Z,96.04
2022-10-31T07:59:21.959Z,96.04
2022-10-31T08:00:21.958Z,95.84
2022-10-31T08:01:21.932Z,95.64
2022-10-31T08:02:21.922Z,95.49
2022-10-31T08:03:21.924Z,95.29
2022-10-31T08:04:21.903Z,95.18
2022-10-31T08:05:21.883Z,95.18
2022-10-31T08:06:21.872Z,95.08
2022-10-31T08:07:21.928Z,94.88
2022-10-31T08:08:21.923Z,94.43
2022-10-31T08:09:21.824Z,94.12
2022-10-31T08:10:21.825Z,94.12
2022-10-31T08:11:21.796Z,94.23
2022-10-31T08:12:22.748Z,94.08
2022-10-31T08:13:21.785Z,93.77
2022-10-31T08:14:21.775Z,93.37
2022-10-31T08:15:21.747Z,93.47
2022-10-31T08:16:21.748Z,93.77
2022-10-31T08:17:21.726Z,93.73
2022-10-31T08:18:21.727Z,93.63
2022-10-31T08:19:21.937Z,93.63
2022-10-31T08:20:21.689Z,93.83
2022-10-31T08:21:21.668Z,93.83
2022-10-31T08:22:21.657Z,93.18
2022-10-31T08:23:22.598Z,92.26
2022-10-31T08:24:21.641Z,92.16
2022-10-31T08:25:21.609Z,92.16
2022-10-31T08:26:21.609Z,91.86
2022-10-31T08:27:21.591Z,91.86
2022-10-31T08:28:21.592Z,91.91
2022-10-31T08:29:21.570Z,91.71
2022-10-31T08:30:21.560Z,91.51
2022-10-31T08:31:21.564Z,90.96
2022-10-31T08:32:21.528Z,90.96
2022-10-31T08:33:21.522Z,91.56
2022-10-31T08:34:21.526Z,91.36
2022-10-31T08:35:21.498Z,90.86
2022-10-31T08:36:21.512Z,90.45
2022-10-31T08:37:21.460Z,89.70
2022-10-31T08:38:21.463Z,89.29
2022-10-31T08:39:21.432Z,88.89
2022-10-31T08:40:21.450Z,89.19
2022-10-31T08:41:21.413Z,89.59
2022-10-31T08:42:21.403Z,89.50
2022-10-31T08:43:21.396Z,89.80
2022-10-31T08:44:21.410Z,89.86
2022-10-31T08:45:21.354Z,88.75
2022-10-31T08:46:21.340Z,88.54
2022-10-31T08:47:21.325Z,88.23
2022-10-31T08:48:21.325Z,87.63
2022-10-31T08:49:21.300Z,86.57
2022-10-31T08:50:21.295Z,87.69
2022-10-31T08:51:21.286Z,86.88
2022-10-31T08:52:23.457Z,86.21
2022-10-31T08:53:22.257Z,85.76
2022-10-31T08:54:21.247Z,86.07
2022-10-31T08:55:21.219Z,86.57
2022-10-31T08:56:21.222Z,87.14
2022-10-31T08:57:21.215Z,87.14
2022-10-31T08:58:21.198Z,85.82
2022-10-31T08:59:21.181Z,87.24
2022-10-31T09:00:21.168Z,86.59
2022-10-31T09:01:21.228Z,87.00
2022-10-31T09:02:21.235Z,87.00
2022-10-31T09:03:21.130Z,86.08
2022-10-31T09:04:21.120Z,85.48
2022-10-31T09:05:21.090Z,85.58
2022-10-31T09:06:21.126Z,84.77
2022-10-31T09:07:21.625Z,85.54
2022-10-31T09:08:21.068Z,85.44
2022-10-31T09:09:21.040Z,85.64
2022-10-31T09:10:21.035Z,86.15
2022-10-31T09:11:21.015Z,85.44
2022-10-31T09:12:21.010Z,85.44
2022-10-31T09:13:21.003Z,85.54
2022-10-31T09:14:20.984Z,86.05
2022-10-31T09:15:21.928Z,85.19
2022-10-31T09:16:20.953Z,85.60
2022-10-31T09:17:20.944Z,86.51
2022-10-31T09:18:20.924Z,85.90
2022-10-31T09:19:20.922Z,86.37
2022-10-31T09:20:20.897Z,85.39
2022-10-31T09:21:20.888Z,85.86
2022-10-31T09:22:20.882Z,86.27
2022-10-31T09:23:20.919Z,85.16
2022-10-31T09:24:20.876Z,85.36
2022-10-31T09:25:20.838Z,85.25
2022-10-31T09:26:20.826Z,85.86
2022-10-31T09:27:20.840Z,85.86
2022-10-31T09:28:20.801Z,84.95
2022-10-31T09:29:20.785Z,83.84
2022-10-31T09:30:20.776Z,84.81
2022-10-31T09:31:20.760Z,85.76
2022-10-31T09:32:20.759Z,85.16
2022-10-31T09:33:20.743Z,84.91
2022-10-31T09:34:20.724Z,84.31
2022-10-31T09:35:24.695Z,84.51
2022-10-31T09:36:21.690Z,84.20
2022-10-31T09:37:20.700Z,84.31
2022-10-31T09:38:20.661Z,84.11
2022-10-31T09:39:20.651Z,83.76
2022-10-31T09:40:20.644Z,83.76
2022-10-31T09:41:20.631Z,84.06
2022-10-31T09:42:20.672Z,84.27
2022-10-31T09:43:20.613Z,83.96
2022-10-31T09:44:20.595Z,83.86
2022-10-31T09:45:20.582Z,83.36
2022-10-31T09:46:20.574Z,83.86
2022-10-31T09:47:21.357Z,83.56
2022-10-31T09:48:20.573Z,83.46
2022-10-31T09:49:20.614Z,83.12
2022-10-31T09:50:20.512Z,83.22
2022-10-31T09:51:20.505Z,83.52
2022-10-31T09:52:20.494Z,83.22
2022-10-31T09:53:20.465Z,82.81
2022-10-31T09:54:20.457Z,82.78
2022-10-31T09:55:20.435Z,82.47
2022-10-31T09:56:20.464Z,82.27
2022-10-31T09:57:20.439Z,82.67
2022-10-31T09:58:20.408Z,82.87
2022-10-31T09:59:20.395Z,82.98
2022-10-31T10:00:20.393Z,83.38
2022-10-31T10:01:20.535Z,82.93
2022-10-31T10:02:20.420Z,84.15
2022-10-31T10:03:20.340Z,83.64
2022-10-31T10:04:21.029Z,82.73
2022-10-31T10:05:20.317Z,82.78
2022-10-31T10:06:20.309Z,82.98
2022-10-31T10:07:20.289Z,82.67
2022-10-31T10:08:20.281Z,83.24
2022-10-31T10:10:20.383Z,82.13
2022-10-31T10:11:20.252Z,81.82
2022-10-31T10:12:20.237Z,81.93
2022-10-31T10:13:20.208Z,82.03
2022-10-31T10:14:20.202Z,82.13
2022-10-31T10:15:20.181Z,82.23
2022-10-31T10:16:20.185Z,82.93
2022-10-31T10:17:20.153Z,82.64
2022-10-31T10:18:20.142Z,82.53
2022-10-31T10:19:20.133Z,83.14
2022-10-31T10:20:20.738Z,82.23
2022-10-31T10:21:20.123Z,82.29
2022-10-31T10:22:20.091Z,81.82
2022-10-31T10:23:20.079Z,82.64
2022-10-31T10:24:20.065Z,82.23
2022-10-31T10:25:20.045Z,81.68
2022-10-31T10:26:20.174Z,81.59
2022-10-31T10:27:22.396Z,82.09
2022-10-31T10:28:20.029Z,82.09
2022-10-31T10:29:19.999Z,82.29
2022-10-31T10:30:20.040Z,82.50
2022-10-31T10:31:20.001Z,82.96
2022-10-31T10:32:19.963Z,82.96
2022-10-31T10:33:19.943Z,83.76
2022-10-31T10:34:19.937Z,82.65
2022-10-31T10:35:19.919Z,82.35
2022-10-31T10:36:19.919Z,83.72
2022-10-31T10:37:19.886Z,82.51
2022-10-31T10:38:19.889Z,82.21
2022-10-31T10:39:19.867Z,81.01
2022-10-31T10:40:20.022Z,80.80
2022-10-31T10:41:19.864Z,81.71
2022-10-31T10:42:19.841Z,82.11
2022-10-31T10:43:19.825Z,83.02
2022-10-31T10:44:19.802Z,82.48
2022-10-31T10:45:19.792Z,82.48
2022-10-31T10:46:19.791Z,81.87
2022-10-31T10:47:19.779Z,81.63
2022-10-31T10:48:19.763Z,82.88
2022-10-31T10:49:19.743Z,81.87
2022-10-31T10:50:19.795Z,81.67
2022-10-31T10:51:31.998Z,82.18
2022-10-31T10:52:39.809Z,82.44
2022-10-31T10:53:20.699Z,82.07
2022-10-31T10:54:19.675Z,80.22
2022-10-31T10:55:19.665Z,81.03
2022-10-31T10:56:19.646Z,81.84
2022-10-31T10:57:19.627Z,82.20
2022-10-31T10:58:19.616Z,81.03
2022-10-31T10:59:19.596Z,82.44
2022-10-31T11:00:19.695Z,80.73
2022-10-31T11:01:19.580Z,81.29
2022-10-31T11:02:19.559Z,81.09
2022-10-31T11:03:19.546Z,81.49
2022-10-31T11:04:19.538Z,81.09
2022-10-31T11:05:19.529Z,80.89
2022-10-31T11:06:19.509Z,81.85
2022-10-31T11:07:19.494Z,81.96
2022-10-31T11:08:22.405Z,81.26
2022-10-31T11:09:20.501Z,79.64
2022-10-31T11:10:19.540Z,79.14
2022-10-31T11:11:19.440Z,80.55
2022-10-31T11:12:19.462Z,81.05
2022-10-31T11:13:19.421Z,81.65
2022-10-31T11:14:19.403Z,81.76
2022-10-31T11:15:19.422Z,80.39
2022-10-31T11:16:19.384Z,80.75
2022-10-31T11:17:19.364Z,80.49
2022-10-31T11:18:19.400Z,80.69
2022-10-31T11:19:19.363Z,79.68
2022-10-31T11:20:19.417Z,80.58
2022-10-31T11:21:19.305Z,81.39
2022-10-31T11:22:19.328Z,81.65
2022-10-31T11:23:19.327Z,80.75
2022-10-31T11:24:19.275Z,79.85
2022-10-31T11:25:19.268Z,79.35
2022-10-31T11:26:19.256Z,79.94
2022-10-31T11:27:20.196Z,79.54
2022-10-31T11:28:19.229Z,80.25
2022-10-31T11:29:19.208Z,80.35
2022-10-31T11:30:19.206Z,81.09
2022-10-31T11:31:19.178Z,81.59
2022-10-31T11:32:19.157Z,81.70
2022-10-31T11:33:20.101Z,80.79
2022-10-31T11:34:19.138Z,80.89
2022-10-31T11:35:19.139Z,80.58
2022-10-31T11:36:19.123Z,80.69
2022-10-31T11:37:19.100Z,81.09
2022-10-31T11:38:19.081Z,81.90
2022-10-31T11:39:19.081Z,83.11
2022-10-31T11:40:19.061Z,82.70
2022-10-31T11:41:19.067Z,81.85
2022-10-31T11:42:19.024Z,81.56
2022-10-31T11:43:19.019Z,81.76
2022-10-31T11:44:19.000Z,81.96
2022-10-31T11:45:19.004Z,81.82
2022-10-31T11:46:18.974Z,81.12
2022-10-31T11:47:18.973Z,79.41
2022-10-31T11:48:18.954Z,79.71
2022-10-31T11:49:18.944Z,80.45
2022-10-31T11:50:18.926Z,80.45
2022-10-31T11:51:19.879Z,80.65
2022-10-31T11:52:18.906Z,80.25
2022-10-31T11:53:18.897Z,81.05
2022-10-31T11:54:18.876Z,81.96
2022-10-31T11:55:18.877Z,80.85
2022-10-31T11:56:18.847Z,79.85
2022-10-31T11:57:18.835Z,79.85
2022-10-31T11:58:18.817Z,79.44
2022-10-31T11:59:18.817Z,79.44
2022-10-31T12:00:18.869Z,79.64
2022-10-31T12:01:18.838Z,79.24
2022-10-31T12:02:18.972Z,79.35
2022-10-31T12:03:18.807Z,79.85
2022-10-31T12:04:18.740Z,80.85
2022-10-31T12:05:18.740Z,80.01
2022-10-31T12:06:18.720Z,80.51
2022-10-31T12:07:18.749Z,78.80
2022-10-31T12:08:18.731Z,79.24
2022-10-31T12:09:18.673Z,80.11
2022-10-31T12:10:18.672Z,79.04
2022-10-31T12:11:18.652Z,80.25
2022-10-31T12:12:18.651Z,79.94
2022-10-31T12:13:18.622Z,79.64
2022-10-31T12:14:18.605Z,80.05
2022-10-31T12:15:18.615Z,80.45
2022-10-31T12:16:18.584Z,80.35
2022-10-31T12:17:18.574Z,79.14
2022-10-31T12:18:18.573Z,79.35
2022-10-31T12:19:18.544Z,79.54
2022-10-31T12:20:18.537Z,79.14
2022-10-31T12:21:18.523Z,79.44
2022-10-31T12:22:18.516Z,80.35
2022-10-31T12:23:18.496Z,80.75
2022-10-31T12:24:18.486Z,80.25
2022-10-31T12:25:18.479Z,80.25
2022-10-31T12:26:18.454Z,80.95
2022-10-31T12:27:18.476Z,80.71
2022-10-31T12:28:18.428Z,79.74
2022-10-31T12:29:18.430Z,78.60
2022-10-31T12:30:18.419Z,79.41
2022-10-31T12:31:18.399Z,79.10
2022-10-31T12:32:18.379Z,79.00
2022-10-31T12:33:18.373Z,78.70
2022-10-31T12:34:18.352Z,79.41
2022-10-31T12:35:18.352Z,79.00
2022-10-31T12:36:18.322Z,78.00
2022-10-31T12:37:18.311Z,79.00
2022-10-31T12:38:18.309Z,78.90
2022-10-31T12:39:18.283Z,79.10
2022-10-31T12:40:18.282Z,78.77
2022-10-31T12:41:18.278Z,78.56
2022-10-31T12:42:18.261Z,78.36
2022-10-31T12:43:18.233Z,79.57
2022-10-31T12:44:18.227Z,79.67
2022-10-31T12:45:18.216Z,80.47
2022-10-31T12:46:18.195Z,80.17
2022-10-31T12:47:18.185Z,78.66
2022-10-31T12:48:18.166Z,79.17
2022-10-31T12:49:18.156Z,79.17
2022-10-31T12:50:18.150Z,79.27
2022-10-31T12:51:18.136Z,79.17
2022-10-31T12:52:18.116Z,79.87
2022-10-31T12:54:18.088Z,80.07
2022-10-31T12:55:18.087Z,80.57
2022-10-31T12:56:18.070Z,81.32
2022-10-31T12:57:18.070Z,81.12